Latest Weather Observations for Yanakie

IDV60801

Issued at 10:05 am EST Tuesday 29 July 2014 (issued every 30 minutes, with the page automatically refreshed every 10 minutes)

About weather observations | Map of weather stations | Latest weather observations for VIC | Other Formats
Station Details ID: 085301 Name: YANAKIE Lat: -38.81 Lon: 146.19 Height: 13.3 m
Data from the previous 72 hours. | See also: Recent months at Yanakie
Date/Time
EST
Temp
°C
App
Temp
°C
Dew
Point
Rel
Hum
%
Delta-T
°C
Wind Press
QNH
hPa
Press
MSL
hPa
Rain
since 9 am
mm
Dir
 
Spd
km/h
Gust
km/h
Spd
kts
Gust
kts
29/10:00am 14.3 4.8 8.3 67 3.0 NNW 48 63 26 34 1005.2 1005.2 0.0
29/09:31am 13.9 4.7 7.9 67 3.0 NW 46 67 25 36 1005.7 - 0.0
29/09:30am 13.9 4.6 7.7 66 3.1 NW 46 63 25 34 1005.7 - 0.0
29/09:00am 13.7 5.4 7.9 68 2.9 NW 41 67 22 36 1006.1 1006.1 0.2
29/08:33am 13.6 5.2 7.4 66 3.0 NNW 41 61 22 33 1006.0 - 0.2
29/08:30am 13.5 5.5 7.5 67 2.9 NNW 39 56 21 30 1006.1 - 0.2
29/08:14am 13.6 5.6 7.4 66 3.0 NNW 39 57 21 31 1006.0 - 0.2
29/08:00am 13.5 5.5 7.5 67 2.9 NNW 39 57 21 31 1006.0 1006.0 0.2
29/07:38am 13.4 5.4 7.4 67 2.9 NNW 39 61 21 33 1006.0 - 0.2
29/07:30am 13.3 5.3 7.3 67 2.9 NNW 39 56 21 30 1005.9 - 0.2
29/07:00am 13.5 4.8 7.5 67 2.9 NNW 43 61 23 33 1005.8 1005.8 0.2
29/06:42am 13.6 5.6 7.6 67 3.0 NW 39 63 21 34 1006.1 - 0.2
29/06:30am 13.5 5.5 7.5 67 2.9 NNW 39 56 21 30 1006.0 - 0.2
29/06:00am 13.4 5.4 7.4 67 2.9 NNW 39 59 21 32 1006.0 1006.0 0.2
29/05:34am 13.3 5.3 7.3 67 2.9 NNW 39 57 21 31 1006.3 - 0.2
29/05:30am 13.5 5.1 7.3 66 3.0 NNW 41 57 22 31 1006.3 - 0.2
29/05:01am 13.6 5.9 7.2 65 3.1 NNW 37 56 20 30 1006.4 - 0.2
29/05:00am 13.6 5.5 7.2 65 3.1 NNW 39 56 21 30 1006.4 1006.4 0.2
29/04:30am 13.5 5.8 7.1 65 3.1 NNW 37 57 20 31 1006.3 - 0.2
29/04:01am 13.2 5.9 7.2 67 2.9 NNW 35 56 19 30 1006.7 - 0.2
29/04:00am 13.2 5.5 7.2 67 2.9 NNW 37 56 20 30 1006.8 1006.8 0.2
29/03:54am 13.2 5.5 7.2 67 2.9 NNW 37 57 20 31 1006.7 - 0.2
29/03:30am 13.1 4.6 7.1 67 2.9 NNW 41 56 22 30 1006.6 - 0.2
29/03:12am 13.1 5.0 7.1 67 2.9 NW 39 59 21 32 1006.7 - 0.2
29/03:00am 13.1 5.0 7.1 67 2.9 NW 39 56 21 30 1007.1 1007.1 0.2
29/02:30am 13.0 5.7 7.0 67 2.9 NW 35 52 19 28 1007.7 - 0.2
29/02:00am 13.1 6.4 7.5 69 2.7 NW 32 44 17 24 1008.2 1008.2 0.2
29/01:40am 13.2 6.5 7.4 68 2.8 NW 32 52 17 28 1008.4 - 0.2
29/01:30am 13.1 6.2 7.3 68 2.8 NNW 33 44 18 24 1008.6 - 0.2
29/01:00am 13.2 5.9 7.2 67 2.9 NW 35 46 19 25 1009.0 1009.0 0.2
29/12:30am 13.2 6.3 7.2 67 2.9 NW 33 48 18 26 1009.4 - 0.2
29/12:18am 13.1 6.2 7.1 67 2.9 NW 33 54 18 29 1009.5 - 0.2
29/12:00am 13.4 5.7 7.0 65 3.1 NW 37 48 20 26 1009.6 1009.6 0.2
 
Date/Time
EST
Temp
°C
App
Temp
°C
Dew
Point
Rel
Hum
%
Delta-T
°C
Wind Press
QNH
hPa
Press
MSL
hPa
Rain
since 9 am
mm
Dir
 
Spd
km/h
Gust
km/h
Spd
kts
Gust
kts
28/11:48pm 13.3 6.4 7.1 66 3.0 NW 33 52 18 28 1009.8 - 0.2
28/11:30pm 13.4 6.1 7.0 65 3.1 NW 35 50 19 27 1010.0 - 0.2
28/11:11pm 13.6 6.6 6.7 63 3.3 NW 33 54 18 29 1010.1 - 0.2
28/11:00pm 13.3 6.2 6.6 64 3.2 NW 33 48 18 26 1010.3 1010.3 0.2
28/10:30pm 13.4 6.9 6.5 63 3.3 NW 30 43 16 23 1010.5 - 0.2
28/10:00pm 13.2 6.3 6.5 64 3.2 NNW 32 43 17 23 1010.5 1010.5 0.2
28/09:41pm 13.2 7.1 6.8 65 3.1 NW 28 52 15 28 1010.4 - 0.2
28/09:30pm 13.3 8.0 6.9 65 3.1 NW 24 37 13 20 1010.6 - 0.2
28/09:00pm 13.1 7.1 6.9 66 3.0 NW 28 39 15 21 1010.5 1010.5 0.2
28/08:30pm 12.8 7.1 6.8 67 2.9 NW 26 39 14 21 1010.7 - 0.2
28/08:00pm 12.8 7.9 7.0 68 2.8 NW 22 33 12 18 1010.9 1010.9 0.2
28/07:30pm 12.9 8.4 7.1 68 2.8 NW 20 30 11 16 1010.8 - 0.2
28/07:00pm 12.4 8.5 7.1 70 2.6 NW 17 20 9 11 1010.7 1010.7 0.2
28/06:30pm 13.6 8.0 7.2 65 3.1 NW 26 35 14 19 1010.6 - 0.2
28/06:00pm 13.9 7.9 7.2 64 3.3 NW 28 39 15 21 1010.3 1010.3 0.2
28/05:30pm 13.9 8.4 7.4 65 3.2 NW 26 35 14 19 1009.8 - 0.2
28/05:00pm 14.6 9.2 7.9 64 3.3 NW 26 37 14 20 1010.1 1010.1 0.2
28/04:30pm 15.5 11.6 8.7 64 3.5 WNW 19 26 10 14 1010.3 - 0.2
28/04:00pm 16.2 11.0 8.7 61 3.8 NW 26 33 14 18 1010.1 1010.1 0.2
28/03:30pm 16.6 11.0 8.6 59 4.1 NW 28 41 15 22 1010.0 - 0.2
28/03:00pm 17.1 11.9 9.0 59 4.2 NW 26 43 14 23 1010.1 1010.1 0.2
28/02:30pm 17.2 11.6 8.9 58 4.3 WNW 28 37 15 20 1010.6 - 0.2
28/02:00pm 17.3 10.2 8.2 55 4.6 NW 35 54 19 29 1010.5 1010.5 0.2
28/01:44pm 17.3 11.2 8.4 56 4.6 WNW 30 48 16 26 1010.6 - 0.2
28/01:30pm 17.4 10.9 8.8 57 4.4 NW 33 46 18 25 1010.8 - 0.2
28/01:00pm 17.0 10.1 7.4 53 4.8 WNW 33 56 18 30 1011.3 1011.3 0.2
28/12:38pm 17.0 10.7 7.4 53 4.8 WNW 30 50 16 27 1011.8 - 0.2
28/12:30pm 17.2 11.9 8.6 57 4.4 WNW 26 37 14 20 1012.0 - 0.2
28/12:00pm 16.7 11.3 7.9 56 4.4 WNW 26 46 14 25 1012.5 1012.5 0.2
28/11:30am 16.5 10.5 7.2 54 4.6 WNW 28 41 15 22 1012.9 - 0.2
28/11:15am 16.3 10.4 7.3 55 4.5 WNW 28 46 15 25 1013.1 - 0.2
28/11:00am 16.2 10.3 7.7 57 4.3 NW 28 43 15 23 1013.4 1013.4 0.2
28/10:30am 15.7 8.9 7.0 56 4.3 NW 32 43 17 23 1013.5 - 0.0
28/10:08am 15.4 9.3 6.7 56 4.2 NW 28 48 15 26 1013.6 - 0.0
28/10:00am 15.3 9.6 6.6 56 4.2 NW 26 41 14 22 1013.6 1013.6 0.0
28/09:30am 14.7 9.8 6.8 59 3.8 NNW 22 30 12 16 1013.7 - 0.0
28/09:00am 14.1 7.9 6.0 58 3.9 NNW 28 46 15 25 1013.7 1013.7 0.0
28/08:30am 13.7 7.4 5.6 58 3.8 NNW 28 48 15 26 1013.7 - 0.0
28/08:00am 13.3 7.3 5.2 58 3.8 NW 26 37 14 20 1014.0 1014.0 0.0
28/07:30am 12.7 7.1 5.4 61 3.4 NW 24 37 13 20 1014.1 - 0.0
28/07:00am 12.9 5.8 5.3 60 3.5 NNW 32 44 17 24 1014.0 1014.0 0.0
28/06:30am 12.0 7.2 5.6 65 3.0 NW 20 32 11 17 1014.3 - 0.0
28/06:00am 11.9 6.8 5.8 66 2.8 NW 22 32 12 17 1014.3 1014.3 0.0
28/05:30am 12.1 5.8 5.9 66 2.9 NW 28 41 15 22 1014.3 - 0.0
28/05:00am 11.9 5.7 6.2 68 2.7 NW 28 39 15 21 1014.2 1014.2 0.0
28/04:30am 11.5 6.4 6.2 70 2.5 NW 22 30 12 16 1014.4 - 0.0
28/04:00am 11.6 6.1 6.1 69 2.6 NW 24 35 13 19 1014.9 1014.9 0.0
28/03:30am 11.9 6.5 6.4 69 2.6 NW 24 32 13 17 1015.1 - 0.0
28/03:00am 12.1 6.4 6.6 69 2.6 NW 26 43 14 23 1015.3 1015.3 0.0
28/02:30am 12.6 5.5 6.6 67 2.9 NNW 33 52 18 28 1015.5 - 0.0
28/02:23am 12.6 5.6 6.9 68 2.7 NNW 33 52 18 28 1015.5 - 0.0
28/02:00am 11.9 6.2 6.8 71 2.4 NNW 26 39 14 21 1015.9 1015.9 0.0
28/01:30am 12.0 6.3 6.9 71 2.4 NW 26 35 14 19 1015.9 - 0.0
28/01:00am 12.0 6.0 7.1 72 2.4 NW 28 39 15 21 1016.1 1016.1 0.0
28/12:30am 11.8 5.9 7.3 74 2.2 NW 28 39 15 21 1016.5 - 0.0
28/12:00am 12.2 5.5 7.5 73 2.3 NW 32 46 17 25 1016.7 1016.7 0.0
 
Date/Time
EST
Temp
°C
App
Temp
°C
Dew
Point
Rel
Hum
%
Delta-T
°C
Wind Press
QNH
hPa
Press
MSL
hPa
Rain
since 9 am
mm
Dir
 
Spd
km/h
Gust
km/h
Spd
kts
Gust
kts
27/11:30pm 12.0 5.8 7.7 75 2.1 NNW 30 44 16 24 1016.9 - 0.0
27/11:00pm 12.0 5.2 7.7 75 2.1 NNW 33 43 18 23 1017.2 1017.2 0.0
27/10:30pm 11.9 6.4 7.6 75 2.1 NNW 26 35 14 19 1018.0 - 0.0
27/10:00pm 11.9 6.0 7.6 75 2.1 NW 28 43 15 23 1018.3 1018.3 0.0
27/09:30pm 11.5 6.4 7.6 77 1.9 NW 24 33 13 18 1018.6 - 0.0
27/09:00pm 11.6 7.2 7.3 75 2.1 NNW 20 28 11 15 1018.8 1018.8 0.0
27/08:30pm 11.5 7.1 7.4 76 2.0 NNW 20 30 11 16 1018.8 - 0.0
27/08:00pm 11.6 7.3 7.7 77 1.9 NNW 20 26 11 14 1019.1 1019.1 0.0
27/07:30pm 11.8 7.5 7.9 77 1.9 NNW 20 26 11 14 1019.2 - 0.0
27/07:00pm 11.6 8.3 7.9 78 1.8 NNW 15 22 8 12 1019.5 1019.5 0.0
27/06:30pm 11.9 8.5 7.8 76 2.0 NNW 15 20 8 11 1019.3 - 0.0
27/06:00pm 12.3 8.1 8.2 76 2.0 NNW 20 30 11 16 1019.2 1019.2 0.0
27/05:30pm 12.3 8.7 8.2 76 2.0 NNW 17 24 9 13 1019.2 - 0.0
27/05:00pm 12.8 9.3 8.9 77 2.0 NNW 17 22 9 12 1019.2 1019.2 0.0
27/04:30pm 13.2 9.4 9.1 76 2.1 NW 19 28 10 15 1019.2 - 0.0
27/04:00pm 13.3 9.5 9.0 75 2.2 NW 19 24 10 13 1019.6 1019.6 0.0
27/03:30pm 13.7 9.7 9.0 73 2.4 WNW 20 28 11 15 1019.8 - 0.0
27/03:00pm 13.8 10.9 9.6 76 2.1 NW 15 19 8 10 1019.7 1019.7 0.0
27/02:30pm 13.9 11.2 8.9 72 2.5 WNW 13 24 7 13 1019.6 - 0.0
27/02:00pm 14.0 11.0 9.2 73 2.4 WNW 15 26 8 14 1020.0 1020.0 0.0
27/01:30pm 13.8 9.7 8.6 71 2.6 NW 20 32 11 17 1020.2 - 0.0
27/01:00pm 13.8 10.0 9.0 73 2.4 NW 19 28 10 15 1020.6 1020.6 0.0
27/12:30pm 13.6 10.1 8.9 73 2.4 NW 17 24 9 13 1021.1 - 0.0
27/12:00pm 13.7 8.8 8.5 71 2.6 NW 24 32 13 17 1021.6 1021.6 0.0
27/11:30am 14.2 10.0 9.6 74 2.4 NW 22 32 12 17 1022.2 - 0.0
27/11:00am 13.2 9.3 9.5 78 1.9 NW 20 28 11 15 1022.8 1022.8 0.0
27/10:30am 12.6 8.9 9.4 81 1.6 NW 19 24 10 13 1023.3 - 0.0
27/10:00am 11.6 7.5 8.8 83 1.4 NW 20 28 11 15 1023.7 1023.7 0.0
27/09:30am 11.0 7.5 8.6 85 1.2 NW 17 26 9 14 1023.8 - 0.0
27/09:00am 10.4 6.3 8.7 89 0.8 NW 20 30 11 16 1023.9 1023.9 3.6
27/08:30am 9.6 6.8 8.7 94 0.4 NW 13 20 7 11 1023.9 - 3.6
27/08:00am 8.5 6.3 7.9 96 0.3 NW 9 15 5 8 1023.8 1023.8 3.6
27/07:30am 8.2 5.6 7.6 96 0.3 NW 11 15 6 8 1023.8 - 3.6
27/07:00am 8.7 5.5 8.3 97 0.2 NW 15 19 8 10 1023.6 1023.6 3.6
27/06:30am 9.0 5.5 8.6 97 0.2 NW 17 22 9 12 1023.3 - 3.6
27/06:00am 9.7 7.1 9.2 97 0.2 WNW 13 19 7 10 1023.1 1023.1 3.6
27/05:30am 10.6 7.5 10.3 98 0.2 NW 17 22 9 12 1022.8 - 3.6
27/05:00am 10.7 8.4 10.4 98 0.2 WNW 13 19 7 10 1023.1 1023.1 3.6
27/04:30am 10.5 7.8 10.2 98 0.2 NW 15 19 8 10 1023.0 - 3.6
27/04:00am 10.7 8.4 10.4 98 0.2 WNW 13 15 7 8 1023.3 1023.3 3.6
27/03:30am 11.0 9.2 10.7 98 0.2 WNW 11 15 6 8 1023.2 - 3.6
27/03:00am 11.0 8.8 10.7 98 0.2 WNW 13 19 7 10 1023.3 1023.3 3.6
27/02:30am 11.1 8.9 10.8 98 0.2 WNW 13 17 7 9 1023.2 - 3.6
27/02:00am 11.7 10.1 11.4 98 0.2 WNW 11 15 6 8 1023.3 1023.3 3.6
27/01:30am 11.4 10.1 11.1 98 0.2 WNW 9 11 5 6 1023.4 - 3.6
27/01:00am 11.5 10.2 11.2 98 0.2 WNW 9 13 5 7 1023.4 1023.4 3.6
27/12:30am 11.6 10.3 11.3 98 0.2 WNW 9 13 5 7 1023.6 - 3.4
27/12:00am 11.5 10.6 11.2 98 0.2 W 7 9 4 5 1023.6 1023.6 3.4
 
Date/Time
EST
Temp
°C
App
Temp
°C
Dew
Point
Rel
Hum
%
Delta-T
°C
Wind Press
QNH
hPa
Press
MSL
hPa
Rain
since 9 am
mm
Dir
 
Spd
km/h
Gust
km/h
Spd
kts
Gust
kts
26/11:30pm 11.9 10.7 11.6 98 0.2 W 9 13 5 7 1023.6 - 3.4
26/11:00pm 11.6 9.9 11.1 97 0.3 W 11 15 6 8 1023.9 1023.9 3.4
26/10:30pm 11.2 9.7 10.7 97 0.3 W 9 11 5 6 1023.7 - 3.4
26/10:00pm 11.1 10.0 10.6 97 0.3 W 7 9 4 5 1023.6 1023.6 3.4
26/09:30pm 10.9 9.7 10.4 97 0.3 WNW 7 11 4 6 1023.5 - 3.4
26/09:00pm 10.9 9.0 10.4 97 0.3 WNW 11 13 6 7 1023.3 1023.3 3.4
26/08:30pm 10.7 9.1 10.1 96 0.3 W 9 11 5 6 1023.1 - 3.4
26/08:00pm 11.2 9.3 10.6 96 0.3 W 11 15 6 8 1022.9 1022.9 3.4
26/07:30pm 11.7 10.0 11.1 96 0.3 W 11 17 6 9 1022.8 - 3.4
26/07:00pm 11.5 8.9 10.7 95 0.4 W 15 19 8 10 1022.6 1022.6 3.4
26/06:30pm 12.2 9.4 11.4 95 0.4 W 17 22 9 12 1022.3 - 3.4
26/06:00pm 12.4 9.3 11.6 95 0.4 W 19 22 10 12 1021.9 1021.9 3.4
26/05:30pm 12.5 9.2 11.6 94 0.5 W 20 26 11 14 1021.7 - 3.2
26/05:00pm 12.9 9.8 11.6 92 0.7 WNW 19 28 10 15 1021.3 1021.3 2.2
26/04:30pm 12.8 9.4 11.4 91 0.7 WNW 20 28 11 15 1021.0 - 2.2
26/04:00pm 13.3 9.7 12.0 92 0.7 WNW 22 32 12 17 1020.8 1020.8 2.2
26/03:30pm 12.8 9.4 11.4 91 0.7 WNW 20 33 11 18 1020.8 - 1.4
26/03:00pm 13.1 9.1 11.7 91 0.7 WNW 24 35 13 19 1020.5 1020.5 1.4
26/02:30pm 13.1 9.1 11.7 91 0.7 WNW 24 35 13 19 1020.2 - 1.0
26/02:00pm 13.0 9.3 11.6 91 0.7 WNW 22 32 12 17 1020.0 1020.0 0.8
26/01:30pm 12.6 8.4 11.2 91 0.7 WNW 24 35 13 19 1019.9 - 0.6
26/01:00pm 13.6 9.2 11.8 89 1.0 WNW 26 35 14 19 1020.2 1020.2 0.0
26/12:30pm 13.4 8.1 11.1 86 1.2 WNW 30 39 16 21 1020.4 - 0.0
26/12:00pm 13.9 9.1 11.8 87 1.1 WNW 28 39 15 21 1020.6 1020.6 0.0
26/11:30am 13.1 8.6 11.3 89 1.0 WNW 26 37 14 20 1020.9 - 0.0
26/11:00am 13.4 9.0 11.6 89 1.0 NW 26 39 14 21 1021.0 1021.0 0.0
26/10:30am 13.0 8.1 11.4 90 0.8 NW 28 37 15 20 1021.1 - 0.0

Other Formats:

Comma delimited format used in spreadsheet applications
http://www.bom.gov.au/fwo/IDV60801/IDV60801.94911.axf

JavaScript Object Notation format (JSON) in row-major order
http://www.bom.gov.au/fwo/IDV60801/IDV60801.94911.json